| Date | Time | Temp. (oF) | Dew Point (oF) | Rel. Hum. (%) | Press. (in.) | Wind Dir. | Wind Speed (mph) | Hourly Rainfall (in.) |
|
|---|---|---|---|---|---|---|---|---|---|
| 1 | 03/17 | 00:00 | 41 | 38 | 91 | 30.27 | NE | 4 | 0.00 |
| 2 | 03/16 | 23:00 | 41 | 38 | 89 | 30.27 | NE | 2 | 0.03 |
| 3 | 03/16 | 22:00 | 42 | 36 | 81 | 30.27 | ESE | 4 | 0.03 |
| 4 | 03/16 | 21:00 | 46 | 39 | 79 | 30.26 | SE | 0 | 0.00 |
| 5 | 03/16 | 20:00 | 48 | 39 | 72 | 30.25 | SSW | 4 | 0.00 |
| 6 | 03/16 | 19:00 | 48 | 40 | 74 | 30.23 | S | 2 | 0.00 |
| 7 | 03/16 | 18:00 | 49 | 41 | 76 | 30.22 | SE | 7 | 0.00 |
| 8 | 03/16 | 17:00 | 50 | 42 | 74 | 30.23 | ESE | 4 | 0.00 |
| 9 | 03/16 | 16:00 | 50 | 41 | 73 | 30.24 | ESE | 8 | 0.00 |
| 10 | 03/16 | 15:00 | 51 | 42 | 73 | 30.25 | SSW | 5 | 0.00 |
| 11 | 03/16 | 14:00 | 52 | 42 | 70 | 30.25 | E | 4 | 0.00 |
| 12 | 03/16 | 13:00 | 51 | 43 | 75 | 30.27 | E | 5 | 0.00 |
| 13 | 03/16 | 12:00 | 50 | 45 | 83 | 30.29 | SE | 4 | 0.00 |
| 14 | 03/16 | 11:00 | 47 | 43 | 87 | 30.31 | N | 0 | 0.00 |
| 15 | 03/16 | 10:00 | 45 | 43 | 94 | 30.30 | SW | 3 | 0.00 |
| 16 | 03/16 | 09:00 | 41 | 41 | 100 | 30.29 | WNW | 2 | 0.00 |
| 17 | 03/16 | 08:00 | 38 | 37 | 100 | 30.26 | NNW | 1 | 0.00 |
| 18 | 03/16 | 07:00 | 38 | 37 | 100 | 30.23 | SW | 0 | 0.00 |
| 19 | 03/16 | 06:00 | 38 | 37 | 100 | 30.23 | S | 0 | 0.00 |
| 20 | 03/16 | 05:00 | 37 | 36 | 100 | 30.23 | SW | 0 | 0.00 |
| 21 | 03/16 | 04:00 | 37 | 36 | 99 | 30.22 | WSW | 0 | 0.00 |
| 22 | 03/16 | 03:00 | 36 | 35 | 98 | 30.23 | SW | 0 | 0.00 |
| 23 | 03/16 | 02:00 | 37 | 36 | 97 | 30.22 | NNW | 0 | 0.00 |
| 24 | 03/16 | 01:00 | 39 | 37 | 96 | 30.22 | NNW | 0 | 0.00 |